Current Conditions
Mostly Cloudy
Conditions



Pressure
1016.92 (hPa) - 30.03 (inHG)
Visibility

10.0 (km) - 6.2 (miles)
   Temperature
4  °C
Temperature
3  °C
Dewpoint
93  %
 Humidity
   Wind Speed
10  mph
9  kts
16  km/h
4.5  m/s
   Wind Direction
N
45°
E
90°
135°
S
180°
225°
W
270°
315°
 350°

Due North
   Airport Data
EGVO
RAF Odiham
Metar :EGVO 141650Z 35009KT 9999 BKN005 BKN012 04/03 Q1017 RMK YLO1
Thu 14th January 16:50 pm
   Raw Metar Info
Raw METAR is the most common format in the world for the transmission of observational weather data. It is highly standardized through the International Civil Aviation Organization (ICAO), which allows it to be understood throughout most of the world.
   API Info
Data Provided by
https://www.checkwx.com/weather/EGVO

Aviation Weather providing METAR, TAF, AIRMET, SIGMET and OUTLOOK Weather Reports
   © Info
CSS/SVG/PHP scripts were developed by weather34.com for use in the weather34 template © 2015-2021

Guide Info provided by Metar-Wikipedia